createdAt,value
2019-01-17T00:01:09.436Z,9.03
2019-01-17T00:03:43.360Z,7.87
2019-01-17T00:06:23.552Z,8.55
2019-01-17T00:08:54.488Z,10.25
2019-01-17T00:11:41.674Z,10.05
2019-01-17T00:14:15.324Z,12.07
2019-01-17T00:16:52.347Z,9.38
2019-01-17T00:19:25.975Z,7.17
2019-01-17T00:22:06.025Z,8.80
2019-01-17T00:24:37.247Z,5.37
2019-01-17T00:27:23.523Z,5.47
2019-01-17T00:29:57.127Z,9.30
2019-01-17T00:32:44.671Z,7.85
2019-01-17T00:35:15.598Z,6.15
2019-01-17T00:37:52.696Z,9.03
2019-01-17T00:40:23.622Z,8.80
2019-01-17T00:43:09.847Z,8.75
2019-01-17T00:45:43.180Z,9.05
2019-01-17T00:48:16.774Z,7.72
2019-01-17T00:50:53.813Z,6.53
2019-01-17T00:53:25.064Z,10.13
2019-01-17T00:55:55.998Z,6.15
2019-01-17T00:58:32.877Z,7.75
2019-01-17T01:01:03.812Z,12.45
2019-01-17T01:03:37.491Z,9.35
2019-01-17T01:06:25.384Z,7.80
2019-01-17T01:08:59.219Z,8.15
2019-01-17T01:11:46.411Z,5.55
2019-01-17T01:14:17.322Z,6.70
2019-01-17T01:17:09.422Z,6.28
2019-01-17T01:19:49.330Z,9.05
2019-01-17T01:22:35.186Z,9.83
2019-01-17T01:25:11.975Z,7.37
2019-01-17T01:27:42.914Z,5.28
2019-01-17T01:30:16.488Z,4.60
2019-01-17T01:32:50.411Z,6.55
2019-01-17T01:35:37.605Z,6.92
2019-01-17T01:38:20.508Z,10.95
2019-01-17T01:40:51.448Z,8.30
2019-01-17T01:43:22.363Z,7.75
2019-01-17T01:45:56.552Z,4.28
2019-01-17T01:48:27.478Z,6.62
2019-01-17T01:51:04.380Z,5.50
2019-01-17T01:53:33.979Z,5.70
2019-01-17T01:56:03.348Z,10.28
2019-01-17T01:58:32.624Z,7.58
2019-01-17T02:01:01.927Z,6.78
2019-01-17T02:03:31.199Z,9.18
2019-01-17T02:06:00.500Z,6.20
2019-01-17T02:08:29.799Z,7.55
2019-01-17T02:10:59.083Z,8.60
2019-01-17T02:13:28.443Z,7.30
2019-01-17T02:15:57.719Z,7.70
2019-01-17T02:18:27.014Z,6.85
2019-01-17T02:20:56.412Z,6.75
2019-01-17T02:23:25.693Z,9.23
2019-01-17T02:25:54.991Z,5.37
2019-01-17T02:28:24.601Z,5.22
2019-01-17T02:30:53.890Z,8.18
2019-01-17T02:33:23.183Z,6.28
2019-01-17T02:35:52.450Z,8.80
2019-01-17T02:38:21.742Z,10.10
2019-01-17T02:40:51.026Z,6.95
2019-01-17T02:43:20.396Z,8.68
2019-01-17T02:45:49.671Z,10.65
2019-01-17T02:48:18.967Z,6.83
2019-01-17T02:50:48.583Z,7.53
2019-01-17T02:53:18.053Z,9.10
2019-01-17T02:55:47.324Z,7.35
2019-01-17T02:58:16.616Z,9.50
2019-01-17T03:00:45.908Z,9.05
2019-01-17T03:03:15.184Z,6.65
2019-01-17T03:05:44.480Z,7.67
2019-01-17T03:08:13.758Z,12.28
2019-01-17T03:10:43.065Z,10.38
2019-01-17T03:13:12.336Z,7.35
2019-01-17T03:15:41.630Z,10.15
2019-01-17T03:18:10.904Z,8.75
2019-01-17T03:20:40.192Z,7.20
2019-01-17T03:23:09.464Z,7.12
2019-01-17T03:25:38.762Z,6.90
2019-01-17T03:28:08.224Z,9.50
2019-01-17T03:30:37.533Z,7.08
2019-01-17T03:33:06.833Z,8.13
2019-01-17T03:35:36.107Z,6.87
2019-01-17T03:38:05.845Z,7.37
2019-01-17T03:40:35.140Z,9.55
2019-01-17T03:43:04.415Z,7.12
2019-01-17T03:45:33.712Z,6.33
2019-01-17T03:48:02.995Z,7.12
2019-01-17T03:50:32.287Z,6.00
2019-01-17T03:53:01.580Z,9.80
2019-01-17T03:55:31.253Z,6.05
2019-01-17T03:58:00.539Z,6.28
2019-01-17T04:00:29.835Z,5.78
2019-01-17T04:02:59.103Z,6.17
2019-01-17T04:05:28.396Z,6.78
2019-01-17T04:07:57.701Z,5.55
2019-01-17T04:10:26.987Z,7.78
2019-01-17T04:12:56.264Z,6.08
2019-01-17T04:15:25.554Z,5.97
2019-01-17T04:17:54.823Z,6.53
2019-01-17T04:20:24.124Z,5.80
2019-01-17T04:22:53.387Z,5.37
2019-01-17T04:25:22.759Z,5.83
2019-01-17T04:27:52.039Z,5.03
2019-01-17T04:30:21.379Z,7.15
2019-01-17T04:32:50.682Z,4.72
2019-01-17T04:35:19.962Z,6.05
2019-01-17T04:37:49.249Z,4.83
2019-01-17T04:40:18.519Z,4.00
2019-01-17T04:42:47.813Z,6.03
2019-01-17T04:45:17.088Z,5.17
2019-01-17T04:47:46.383Z,4.58
2019-01-17T04:50:15.832Z,3.70
2019-01-17T04:52:45.292Z,4.30
2019-01-17T04:55:14.848Z,4.08
2019-01-17T04:57:44.147Z,3.72
2019-01-17T05:00:18.931Z,5.22
2019-01-17T05:02:48.227Z,4.50
2019-01-17T05:05:17.499Z,3.20
2019-01-17T05:07:46.780Z,7.10
2019-01-17T05:10:17.446Z,4.28
2019-01-17T05:12:47.040Z,5.17
2019-01-17T05:15:16.656Z,4.92
2019-01-17T05:17:47.576Z,5.30
2019-01-17T05:20:16.936Z,3.60
2019-01-17T05:22:46.279Z,7.08
2019-01-17T05:25:15.903Z,4.42
2019-01-17T05:27:45.206Z,6.00
2019-01-17T05:30:18.428Z,5.25
2019-01-17T05:32:48.003Z,5.00
2019-01-17T05:35:17.380Z,3.95
2019-01-17T05:37:46.660Z,4.15
2019-01-17T05:40:18.273Z,5.17
2019-01-17T05:42:47.535Z,4.47
2019-01-17T05:45:16.883Z,4.35
2019-01-17T05:47:46.160Z,5.17
2019-01-17T05:50:17.086Z,6.08
2019-01-17T05:52:46.380Z,4.67
2019-01-17T05:55:19.765Z,4.40
2019-01-17T05:57:46.642Z,4.37
2019-01-17T06:00:18.279Z,4.87
2019-01-17T06:02:47.623Z,5.55
2019-01-17T06:05:17.744Z,10.30
2019-01-17T06:07:47.035Z,9.85
2019-01-17T06:10:16.307Z,4.75
2019-01-17T06:15:15.759Z,5.72
2019-01-17T06:17:45.032Z,4.60
2019-01-17T06:20:16.663Z,4.17
2019-01-17T06:22:46.127Z,6.28
2019-01-17T06:25:15.410Z,3.75
2019-01-17T06:27:44.699Z,4.08
2019-01-17T06:30:15.533Z,5.30
2019-01-17T06:32:44.815Z,4.95
2019-01-17T06:35:14.230Z,5.40
2019-01-17T06:37:43.587Z,5.67
2019-01-17T06:40:24.698Z,4.40
2019-01-17T06:42:53.997Z,5.92
2019-01-17T06:45:23.267Z,7.30
2019-01-17T06:47:52.621Z,4.60
2019-01-17T06:50:21.891Z,5.08
2019-01-17T06:52:51.183Z,4.78
2019-01-17T06:55:20.455Z,4.70
2019-01-17T06:57:49.751Z,6.60
2019-01-17T07:00:19.037Z,10.72
2019-01-17T07:02:48.329Z,6.83
2019-01-17T07:05:17.615Z,6.35
2019-01-17T07:07:46.892Z,9.55
2019-01-17T07:10:18.826Z,6.58
2019-01-17T07:12:48.099Z,6.95
2019-01-17T07:15:17.699Z,11.68
2019-01-17T07:17:46.981Z,8.23
2019-01-17T07:20:16.795Z,6.10
2019-01-17T07:22:46.092Z,8.73
2019-01-17T07:25:15.643Z,8.23
2019-01-17T07:27:45.219Z,7.00
2019-01-17T07:30:20.459Z,6.45
2019-01-17T07:32:49.752Z,4.95
2019-01-17T07:35:19.095Z,4.65
2019-01-17T07:37:48.390Z,4.15
2019-01-17T07:40:17.664Z,3.92
2019-01-17T07:42:47.271Z,3.17
2019-01-17T07:45:19.454Z,3.17
2019-01-17T07:47:48.743Z,3.17
2019-01-17T07:50:18.020Z,2.77
2019-01-17T07:52:47.379Z,3.10
2019-01-17T07:55:16.668Z,3.95
2019-01-17T07:57:45.971Z,7.53
2019-01-17T08:00:18.318Z,3.95
2019-01-17T08:02:47.608Z,4.33
2019-01-17T08:05:17.435Z,7.97
2019-01-17T08:07:46.872Z,5.03
2019-01-17T08:10:18.768Z,6.95
2019-01-17T08:12:48.711Z,4.85
2019-01-17T08:15:18.435Z,4.42
2019-01-17T08:17:47.790Z,4.28
2019-01-17T08:20:19.531Z,5.08
2019-01-17T08:22:49.188Z,6.83
2019-01-17T08:25:18.551Z,5.20
2019-01-17T08:27:47.895Z,5.20
2019-01-17T08:30:19.891Z,5.85
2019-01-17T08:32:49.168Z,7.35
2019-01-17T08:35:18.691Z,6.72
2019-01-17T08:37:48.046Z,7.50
2019-01-17T08:40:26.052Z,6.62
2019-01-17T08:42:55.329Z,10.40
2019-01-17T08:45:24.627Z,6.67
2019-01-17T08:47:53.984Z,6.87
2019-01-17T08:50:23.330Z,7.08
2019-01-17T08:52:52.879Z,5.78
2019-01-17T08:55:22.227Z,8.35
2019-01-17T08:57:51.787Z,6.75
2019-01-17T09:00:25.676Z,8.70
2019-01-17T09:02:54.967Z,7.42
2019-01-17T09:05:24.323Z,5.20
2019-01-17T09:07:53.911Z,6.37
2019-01-17T09:10:26.127Z,5.53
2019-01-17T09:12:55.487Z,6.35
2019-01-17T09:15:29.808Z,8.93
2019-01-17T09:17:59.075Z,4.00
2019-01-17T09:20:28.374Z,5.25
2019-01-17T09:22:57.648Z,4.92
2019-01-17T09:25:26.939Z,8.50
2019-01-17T09:27:56.291Z,5.03
2019-01-17T09:30:25.591Z,4.75
2019-01-17T09:32:54.869Z,4.90
2019-01-17T09:35:24.159Z,4.75
2019-01-17T09:37:53.451Z,4.50
2019-01-17T09:40:23.224Z,5.65
2019-01-17T09:42:52.499Z,5.40
2019-01-17T09:45:21.779Z,6.47
2019-01-17T09:47:51.051Z,5.10
2019-01-17T09:50:22.289Z,4.78
2019-01-17T09:52:51.939Z,5.28
2019-01-17T09:55:21.472Z,4.47
2019-01-17T09:57:50.764Z,3.60
2019-01-17T10:00:25.480Z,5.22
2019-01-17T10:02:54.935Z,3.72
2019-01-17T10:05:24.300Z,5.95
2019-01-17T10:07:53.643Z,3.80
2019-01-17T10:10:24.675Z,3.27
2019-01-17T10:12:53.951Z,3.87
2019-01-17T10:15:29.499Z,3.40
2019-01-17T10:18:07.599Z,4.03
2019-01-17T10:21:02.915Z,3.58
2019-01-17T10:23:44.204Z,3.75
2019-01-17T10:26:21.267Z,2.77
2019-01-17T10:29:08.060Z,2.52
2019-01-17T10:31:52.358Z,2.40
2019-01-17T10:34:33.467Z,2.20
2019-01-17T10:37:17.979Z,1.60
2019-01-17T10:40:12.325Z,1.60
2019-01-17T10:42:53.297Z,1.50
2019-01-17T10:45:28.155Z,1.07
2019-01-17T10:48:23.339Z,1.25
2019-01-17T10:51:11.012Z,1.00
2019-01-17T10:53:55.631Z,0.88
2019-01-17T10:56:41.520Z,1.12
2019-01-17T10:59:25.130Z,2.17
2019-01-17T11:02:17.082Z,1.00
2019-01-17T11:04:55.333Z,1.00
2019-01-17T11:07:45.175Z,1.20
2019-01-17T11:10:38.699Z,1.35
2019-01-17T11:13:23.039Z,1.00
2019-01-17T11:16:03.962Z,2.05
2019-01-17T11:18:57.692Z,5.33
2019-01-17T11:21:44.756Z,2.22
2019-01-17T11:24:19.827Z,0.80
2019-01-17T11:27:18.331Z,1.80
2019-01-17T11:29:56.407Z,1.67
2019-01-17T11:32:37.395Z,1.75
2019-01-17T11:35:21.607Z,0.95
2019-01-17T11:37:59.671Z,1.77
2019-01-17T11:40:37.719Z,5.22
2019-01-17T11:43:31.216Z,1.30
2019-01-17T11:46:18.771Z,1.40
2019-01-17T11:49:06.029Z,2.85
2019-01-17T11:51:55.112Z,2.72
2019-01-17T11:54:30.499Z,1.37
2019-01-17T11:57:05.743Z,1.90
2019-01-17T11:59:41.032Z,1.82
2019-01-17T12:02:22.103Z,1.75
2019-01-17T12:04:50.323Z,0.70
2019-01-17T12:07:20.182Z,2.60
2019-01-17T12:09:49.751Z,1.50
2019-01-17T12:12:20.315Z,2.25
2019-01-17T12:14:49.598Z,1.00
2019-01-17T12:17:19.192Z,1.82
2019-01-17T12:19:48.559Z,1.12
2019-01-17T12:22:17.899Z,1.35
2019-01-17T12:24:47.188Z,1.50
2019-01-17T12:27:16.459Z,2.77
2019-01-17T12:29:45.749Z,1.90
2019-01-17T12:32:15.023Z,4.35
2019-01-17T12:34:44.323Z,1.65
2019-01-17T12:37:13.906Z,0.90
2019-01-17T12:39:43.215Z,3.83
2019-01-17T12:42:12.483Z,1.07
2019-01-17T12:44:41.771Z,1.90
2019-01-17T12:47:11.051Z,0.82
2019-01-17T12:49:40.339Z,1.12
2019-01-17T12:52:09.649Z,2.05
2019-01-17T12:54:38.916Z,2.08
2019-01-17T12:57:08.207Z,1.45
2019-01-17T12:59:37.487Z,0.70
2019-01-17T13:02:06.775Z,1.52
2019-01-17T13:04:36.055Z,0.80
2019-01-17T13:07:05.567Z,2.17
2019-01-17T13:09:34.851Z,2.65
2019-01-17T13:12:04.194Z,0.80
2019-01-17T13:14:33.483Z,1.15
2019-01-17T13:17:02.759Z,3.95
2019-01-17T13:19:32.319Z,2.77
2019-01-17T13:22:01.619Z,3.27
2019-01-17T13:24:30.902Z,1.60
2019-01-17T13:27:00.864Z,1.70
2019-01-17T13:29:30.455Z,1.15
2019-01-17T13:31:59.735Z,1.35
2019-01-17T13:34:29.047Z,1.27
2019-01-17T13:36:58.663Z,1.22
2019-01-17T13:39:27.947Z,1.12
2019-01-17T13:41:57.215Z,1.27
2019-01-17T13:44:26.767Z,2.42
2019-01-17T13:46:56.038Z,3.05
2019-01-17T13:49:25.332Z,2.22
2019-01-17T13:51:54.631Z,2.05
2019-01-17T13:54:24.171Z,1.00
2019-01-17T13:56:53.465Z,3.17
2019-01-17T13:59:22.987Z,4.30
2019-01-17T14:01:52.406Z,2.65
2019-01-17T14:04:21.707Z,1.65
2019-01-17T14:06:50.978Z,2.77
2019-01-17T14:09:20.588Z,1.00
2019-01-17T14:11:49.859Z,2.67
2019-01-17T14:14:19.151Z,2.75
2019-01-17T14:16:48.427Z,1.22
2019-01-17T14:19:17.723Z,1.98
2019-01-17T14:21:46.999Z,4.10
2019-01-17T14:24:16.282Z,1.70
2019-01-17T14:26:45.579Z,1.27
2019-01-17T14:29:14.860Z,2.10
2019-01-17T14:31:44.135Z,4.55
2019-01-17T14:34:13.410Z,2.50
2019-01-17T14:36:43.040Z,1.98
2019-01-17T14:39:12.344Z,1.95
2019-01-17T14:41:41.638Z,1.85
2019-01-17T14:44:10.909Z,3.55
2019-01-17T14:46:40.199Z,2.65
2019-01-17T14:49:09.479Z,2.62
2019-01-17T14:51:38.787Z,2.95
2019-01-17T14:54:08.308Z,1.85
2019-01-17T14:56:37.911Z,3.17
2019-01-17T14:59:07.204Z,1.70
2019-01-17T15:01:36.479Z,0.93
2019-01-17T15:04:05.847Z,0.80
2019-01-17T15:06:35.127Z,0.50
2019-01-17T15:09:06.987Z,0.80
2019-01-17T15:11:36.532Z,0.60
2019-01-17T15:14:06.063Z,1.32
2019-01-17T15:16:35.610Z,0.60
2019-01-17T15:19:04.955Z,0.95
2019-01-17T15:21:34.251Z,1.32
2019-01-17T15:24:03.529Z,1.82
2019-01-17T15:26:33.111Z,2.62
2019-01-17T15:29:02.359Z,4.60
2019-01-17T15:31:31.660Z,3.95
2019-01-17T15:34:00.939Z,3.52
2019-01-17T15:36:30.236Z,7.28
2019-01-17T15:38:59.511Z,3.17
2019-01-17T15:41:28.817Z,2.37
2019-01-17T15:43:58.079Z,3.87
2019-01-17T15:46:27.371Z,4.15
2019-01-17T15:48:56.669Z,1.32
2019-01-17T15:51:26.006Z,0.82
2019-01-17T15:53:55.619Z,1.17
2019-01-17T15:56:24.971Z,0.80
2019-01-17T15:58:54.255Z,1.40
2019-01-17T16:01:23.535Z,1.70
2019-01-17T16:03:52.847Z,2.33
2019-01-17T16:06:22.123Z,0.70
2019-01-17T16:08:51.419Z,1.50
2019-01-17T16:11:21.036Z,1.12
2019-01-17T16:13:50.311Z,1.12
2019-01-17T16:16:19.679Z,1.00
2019-01-17T16:18:49.179Z,0.95
2019-01-17T16:21:18.459Z,1.32
2019-01-17T16:23:47.965Z,0.80
2019-01-17T16:26:17.259Z,1.27
2019-01-17T16:28:46.855Z,1.07
2019-01-17T16:31:16.459Z,1.45
2019-01-17T16:33:45.789Z,2.12
2019-01-17T16:36:15.059Z,1.20
2019-01-17T16:38:44.439Z,2.40
2019-01-17T16:41:13.713Z,1.32
2019-01-17T16:43:43.004Z,2.60
2019-01-17T16:46:12.383Z,3.95
2019-01-17T16:48:41.671Z,1.40
2019-01-17T16:51:10.966Z,1.20
2019-01-17T16:53:40.234Z,3.72
2019-01-17T16:56:09.519Z,1.15
2019-01-17T16:58:38.841Z,1.50
2019-01-17T17:01:08.111Z,4.20
2019-01-17T17:03:37.643Z,0.90
2019-01-17T17:06:07.056Z,1.85
2019-01-17T17:08:36.395Z,1.45
2019-01-17T17:11:06.475Z,2.10
2019-01-17T17:13:36.051Z,0.80
2019-01-17T17:16:05.343Z,0.70
2019-01-17T17:18:34.635Z,1.37
2019-01-17T17:21:03.903Z,1.22
2019-01-17T17:23:33.194Z,5.42
2019-01-17T17:26:02.643Z,1.50
2019-01-17T17:28:31.923Z,1.95
2019-01-17T17:31:01.231Z,2.85
2019-01-17T17:33:30.823Z,2.45
2019-01-17T17:36:00.114Z,1.62
2019-01-17T17:38:29.403Z,1.82
2019-01-17T17:40:58.691Z,2.55
2019-01-17T17:43:27.999Z,2.47
2019-01-17T17:45:57.279Z,2.92
2019-01-17T17:48:26.832Z,4.97
2019-01-17T17:50:56.107Z,8.20
2019-01-17T17:53:25.408Z,1.10
2019-01-17T17:55:54.759Z,2.55
2019-01-17T17:58:24.044Z,1.15
2019-01-17T18:00:55.279Z,2.33
2019-01-17T18:03:24.551Z,2.15
2019-01-17T18:05:54.082Z,2.35
2019-01-17T18:08:23.375Z,2.20
2019-01-17T18:10:52.999Z,2.45
2019-01-17T18:13:22.274Z,3.20
2019-01-17T18:15:51.558Z,2.22
2019-01-17T18:18:20.839Z,6.15
2019-01-17T18:20:50.126Z,2.95
2019-01-17T18:23:19.407Z,1.72
2019-01-17T18:25:48.683Z,7.08
2019-01-17T18:28:17.978Z,3.58
2019-01-17T18:30:47.272Z,3.50
2019-01-17T18:33:16.779Z,4.50
2019-01-17T18:35:46.067Z,5.10
2019-01-17T18:38:15.347Z,6.00
2019-01-17T18:40:44.911Z,2.83
2019-01-17T18:43:14.216Z,2.05
2019-01-17T18:45:43.487Z,3.65
2019-01-17T18:48:12.775Z,1.25
2019-01-17T18:50:42.050Z,2.17
2019-01-17T18:53:11.339Z,2.55
2019-01-17T18:55:40.606Z,4.17
2019-01-17T18:58:15.570Z,1.22
2019-01-17T19:00:40.872Z,2.10
2019-01-17T19:03:10.459Z,3.72
2019-01-17T19:05:39.760Z,1.87
2019-01-17T19:08:09.104Z,1.10
2019-01-17T19:10:38.367Z,4.93
2019-01-17T19:13:07.895Z,4.97
2019-01-17T19:15:37.244Z,2.75
2019-01-17T19:18:06.767Z,3.25
2019-01-17T19:20:36.044Z,6.08
2019-01-17T19:23:05.324Z,3.05
2019-01-17T19:25:34.884Z,3.52
2019-01-17T19:28:04.155Z,2.77
2019-01-17T19:30:33.444Z,2.45
2019-01-17T19:33:03.118Z,1.92
2019-01-17T19:35:32.391Z,3.37
2019-01-17T19:38:01.678Z,2.45
2019-01-17T19:40:30.951Z,2.12
2019-01-17T19:43:00.267Z,3.52
2019-01-17T19:45:29.539Z,2.25
2019-01-17T19:47:58.899Z,4.08
2019-01-17T19:50:33.627Z,4.72
2019-01-17T19:53:02.903Z,4.80
2019-01-17T19:55:32.262Z,3.17
2019-01-17T19:58:01.831Z,2.25
2019-01-17T20:00:31.108Z,2.67
2019-01-17T20:03:00.401Z,2.08
2019-01-17T20:05:31.951Z,3.95
2019-01-17T20:08:01.491Z,6.50
2019-01-17T20:10:32.591Z,3.50
2019-01-17T20:13:01.872Z,4.83
2019-01-17T20:15:31.169Z,3.87
2019-01-17T20:18:00.436Z,4.53
2019-01-17T20:20:32.057Z,3.30
2019-01-17T20:23:01.032Z,2.75
2019-01-17T20:25:30.311Z,3.27
2019-01-17T20:27:59.603Z,5.03
2019-01-17T20:30:30.718Z,3.62
2019-01-17T20:33:01.152Z,3.95
2019-01-17T20:35:30.443Z,1.95
2019-01-17T20:37:59.963Z,3.05
2019-01-17T20:40:29.244Z,4.75
2019-01-17T20:42:58.535Z,2.85
2019-01-17T20:45:27.851Z,3.65
2019-01-17T20:47:57.162Z,6.87
2019-01-17T20:50:28.976Z,3.70
2019-01-17T20:52:58.277Z,6.47
2019-01-17T20:55:27.551Z,3.15
2019-01-17T20:57:56.848Z,4.40
2019-01-17T21:00:35.466Z,2.75
2019-01-17T21:03:06.494Z,11.33
2019-01-17T21:05:35.774Z,7.05
2019-01-17T21:08:05.050Z,4.75
2019-01-17T21:10:34.409Z,3.45
2019-01-17T21:13:03.703Z,6.72
2019-01-17T21:15:33.295Z,2.77
2019-01-17T21:18:02.598Z,6.83
2019-01-17T21:20:31.872Z,4.22
2019-01-17T21:23:01.159Z,3.85
2019-01-17T21:25:30.431Z,3.40
2019-01-17T21:28:00.004Z,4.62
2019-01-17T21:30:29.280Z,3.27
2019-01-17T21:32:58.570Z,2.98
2019-01-17T21:35:27.860Z,3.10
2019-01-17T21:37:57.159Z,5.35
2019-01-17T21:40:26.431Z,3.70
2019-01-17T21:42:55.722Z,5.30
2019-01-17T21:45:25.075Z,4.67
2019-01-17T21:47:54.363Z,6.85
2019-01-17T21:50:26.663Z,9.15
2019-01-17T21:52:55.999Z,4.93
2019-01-17T21:55:25.284Z,4.35
2019-01-17T21:57:54.567Z,6.05
2019-01-17T22:00:28.659Z,5.05
2019-01-17T22:02:57.950Z,5.85
2019-01-17T22:05:27.219Z,6.85
2019-01-17T22:07:56.510Z,4.42
2019-01-17T22:10:25.860Z,4.45
2019-01-17T22:12:55.139Z,5.05
2019-01-17T22:15:26.618Z,7.08
2019-01-17T22:17:55.954Z,3.00
2019-01-17T22:20:25.265Z,5.35
2019-01-17T22:22:54.591Z,3.08
2019-01-17T22:25:23.920Z,2.58
2019-01-17T22:27:53.682Z,9.93
2019-01-17T22:30:28.191Z,5.35
2019-01-17T22:32:57.479Z,5.22
2019-01-17T22:35:26.775Z,3.12
2019-01-17T22:37:56.051Z,4.22
2019-01-17T22:40:25.600Z,4.00
2019-01-17T22:42:54.899Z,4.33
2019-01-17T22:45:31.207Z,5.22
2019-01-17T22:48:00.767Z,6.87
2019-01-17T22:50:30.115Z,2.52
2019-01-17T22:52:59.415Z,2.65
2019-01-17T22:55:28.687Z,4.12
2019-01-17T22:57:57.971Z,2.87
2019-01-17T23:00:55.782Z,3.95
2019-01-17T23:03:31.715Z,2.80
2019-01-17T23:06:01.035Z,4.72
2019-01-17T23:08:30.604Z,3.10
2019-01-17T23:10:59.904Z,3.10
2019-01-17T23:13:29.179Z,5.10
2019-01-17T23:15:58.699Z,4.65
2019-01-17T23:18:27.988Z,4.05
2019-01-17T23:20:57.282Z,4.30
2019-01-17T23:23:26.559Z,3.27
2019-01-17T23:25:55.844Z,4.72
2019-01-17T23:28:25.118Z,3.42
2019-01-17T23:30:54.411Z,3.58
2019-01-17T23:33:23.683Z,3.05
2019-01-17T23:35:52.967Z,3.90
2019-01-17T23:38:22.519Z,4.15
2019-01-17T23:40:51.807Z,4.53
2019-01-17T23:43:21.094Z,3.42
2019-01-17T23:45:50.384Z,3.90
2019-01-17T23:48:22.603Z,3.46
2019-01-17T23:50:51.907Z,4.15
2019-01-17T23:53:21.179Z,3.35
2019-01-17T23:55:50.468Z,5.00
2019-01-17T23:58:19.746Z,3.92
